Accueil
METAR-TAF:

METAR-TAF

Aéroports :

Grove, Oklahoma, États-Unis

latitude: 36-36-19N, longitude: 094-44-19W, altitude: 254 m

Observation

Le bulletin a été fait il y a 15 minutes, à 17:15 UTC
Vent 5 kt de nord
Température 8°C
Humidité 53%
Pression 1028 hPa
Visibilité: 16.1 km
Ciel clair

METAR: KGMJ 141715Z AUTO 01005KT 10SM CLR 08/M01 A3036 RMK AO2

Heure: 11:30 (17:30 UTC)


TAF: absent

Observations et prévisions météorologiques de plus de 4000 aéroports (messages METAR et TAF).

Les stations disponibles sont représentées par des disques jaunes et rouges sur la carte.

Passer la souris dessus pour voir le nom de la station.

Cliquer dessus pour voir les observations et prévisions météorologiques.

Pour changer de carte: cliquez sur les boutons verts avec une croix noire pour zoomer, sur le bouton vert avec un tiret pour effectuer un zoom arrière, ou sur les flèches vertes pour les cartes adjacentes.


METAR-TAF: